createdAt,value
2019-05-23T00:00:04.925Z,4.40
2019-05-23T00:01:04.915Z,3.40
2019-05-23T00:02:04.907Z,4.70
2019-05-23T00:03:04.902Z,5.40
2019-05-23T00:04:04.885Z,3.00
2019-05-23T00:05:04.876Z,3.40
2019-05-23T00:06:04.870Z,4.70
2019-05-23T00:07:04.864Z,3.30
2019-05-23T00:08:04.848Z,5.30
2019-05-23T00:09:04.839Z,4.00
2019-05-23T00:10:04.826Z,3.00
2019-05-23T00:11:04.821Z,2.70
2019-05-23T00:12:04.808Z,4.50
2019-05-23T00:13:04.800Z,2.80
2019-05-23T00:14:04.790Z,4.80
2019-05-23T00:15:04.821Z,2.80
2019-05-23T00:16:04.772Z,2.90
2019-05-23T00:17:04.903Z,4.40
2019-05-23T00:18:04.756Z,6.50
2019-05-23T00:19:04.742Z,3.80
2019-05-23T00:20:04.735Z,7.20
2019-05-23T00:21:04.747Z,3.80
2019-05-23T00:22:04.710Z,3.40
2019-05-23T00:23:04.708Z,3.40
2019-05-23T00:24:04.693Z,4.60
2019-05-23T00:25:04.684Z,4.20
2019-05-23T00:26:04.671Z,3.30
2019-05-23T00:27:04.664Z,4.20
2019-05-23T00:28:04.659Z,3.60
2019-05-23T00:29:10.025Z,3.10
2019-05-23T00:30:04.632Z,3.80
2019-05-23T00:31:04.630Z,3.70
2019-05-23T00:32:04.614Z,3.50
2019-05-23T00:33:04.603Z,3.50
2019-05-23T00:34:04.592Z,3.40
2019-05-23T00:35:04.584Z,4.40
2019-05-23T00:36:04.573Z,3.60
2019-05-23T00:37:04.564Z,2.70
2019-05-23T00:38:04.554Z,5.40
2019-05-23T00:39:04.546Z,3.80
2019-05-23T00:40:04.536Z,5.50
2019-05-23T00:41:04.524Z,4.10
2019-05-23T00:42:04.518Z,4.60
2019-05-23T00:43:04.507Z,5.40
2019-05-23T00:44:04.494Z,4.10
2019-05-23T00:45:04.486Z,3.80
2019-05-23T00:46:04.476Z,4.30
2019-05-23T00:47:04.464Z,4.40
2019-05-23T00:48:04.501Z,5.20
2019-05-23T00:49:04.446Z,3.70
2019-05-23T00:50:04.434Z,4.10
2019-05-23T00:51:05.394Z,5.20
2019-05-23T00:52:04.414Z,4.00
2019-05-23T00:53:04.403Z,4.80
2019-05-23T00:54:04.404Z,3.60
2019-05-23T00:55:04.389Z,4.90
2019-05-23T00:56:04.377Z,5.50
2019-05-23T00:57:04.413Z,4.80
2019-05-23T00:58:04.373Z,3.90
2019-05-23T00:59:04.345Z,4.10
2019-05-23T01:00:04.336Z,3.90
2019-05-23T01:01:04.328Z,7.00
2019-05-23T01:02:04.320Z,4.40
2019-05-23T01:03:04.305Z,4.20
2019-05-23T01:04:04.299Z,3.30
2019-05-23T01:05:04.347Z,4.40
2019-05-23T01:06:04.277Z,4.00
2019-05-23T01:07:04.266Z,3.70
2019-05-23T01:08:04.254Z,6.00
2019-05-23T01:09:04.245Z,4.30
2019-05-23T01:10:04.237Z,4.30
2019-05-23T01:11:04.225Z,3.50
2019-05-23T01:12:04.217Z,3.10
2019-05-23T01:13:04.209Z,4.20
2019-05-23T01:14:04.261Z,5.00
2019-05-23T01:15:04.196Z,4.00
2019-05-23T01:16:04.176Z,4.30
2019-05-23T01:17:04.167Z,5.40
2019-05-23T01:18:04.157Z,4.80
2019-05-23T01:19:04.150Z,3.80
2019-05-23T01:20:04.136Z,3.90
2019-05-23T01:21:04.127Z,6.40
2019-05-23T01:22:04.116Z,4.10
2019-05-23T01:23:04.104Z,3.90
2019-05-23T01:24:04.103Z,3.50
2019-05-23T01:25:04.087Z,6.50
2019-05-23T01:26:04.077Z,5.10
2019-05-23T01:27:04.068Z,5.40
2019-05-23T01:28:04.064Z,4.50
2019-05-23T01:29:04.108Z,5.40
2019-05-23T01:30:04.047Z,6.40
2019-05-23T01:31:04.025Z,5.10
2019-05-23T01:32:04.020Z,4.00
2019-05-23T01:33:04.003Z,4.50
2019-05-23T01:34:03.995Z,6.20
2019-05-23T01:35:03.983Z,4.70
2019-05-23T01:36:03.971Z,3.30
2019-05-23T01:37:03.964Z,3.70
2019-05-23T01:38:04.327Z,3.50
2019-05-23T01:39:03.946Z,4.40
2019-05-23T01:40:03.932Z,4.10
2019-05-23T01:41:03.923Z,4.30
2019-05-23T01:42:03.917Z,5.00
2019-05-23T01:43:03.908Z,4.50
2019-05-23T01:44:03.893Z,5.00
2019-05-23T01:45:03.884Z,3.70
2019-05-23T01:46:03.873Z,4.30
2019-05-23T01:47:03.865Z,3.80
2019-05-23T01:48:03.863Z,5.00
2019-05-23T01:49:03.849Z,5.00
2019-05-23T01:50:03.834Z,4.50
2019-05-23T01:51:03.824Z,6.50
2019-05-23T01:52:03.812Z,6.50
2019-05-23T01:53:03.801Z,5.70
2019-05-23T01:54:03.792Z,4.70
2019-05-23T01:55:03.783Z,4.40
2019-05-23T01:56:03.783Z,4.40
2019-05-23T01:57:03.762Z,4.40
2019-05-23T01:58:03.753Z,4.80
2019-05-23T01:59:03.744Z,7.10
2019-05-23T02:00:09.974Z,5.90
2019-05-23T02:01:03.720Z,6.10
2019-05-23T02:02:03.716Z,4.70
2019-05-23T02:03:03.712Z,5.00
2019-05-23T02:04:03.693Z,5.90
2019-05-23T02:05:03.688Z,5.10
2019-05-23T02:06:03.673Z,4.10
2019-05-23T02:07:03.672Z,5.80
2019-05-23T02:08:03.719Z,6.50
2019-05-23T02:09:03.638Z,5.90
2019-05-23T02:10:03.632Z,5.10
2019-05-23T02:11:03.627Z,6.20
2019-05-23T02:12:03.610Z,7.90
2019-05-23T02:13:03.616Z,5.70
2019-05-23T02:14:03.592Z,4.80
2019-05-23T02:15:03.579Z,5.90
2019-05-23T02:16:03.567Z,5.00
2019-05-23T02:17:03.560Z,5.00
2019-05-23T02:18:03.561Z,4.90
2019-05-23T02:19:03.561Z,5.20
2019-05-23T02:20:03.546Z,4.50
2019-05-23T02:21:03.610Z,4.40
2019-05-23T02:22:03.510Z,5.50
2019-05-23T02:23:03.501Z,5.80
2019-05-23T02:24:03.487Z,5.40
2019-05-23T02:25:03.483Z,4.20
2019-05-23T02:26:03.473Z,5.10
2019-05-23T02:27:03.458Z,5.60
2019-05-23T02:28:03.448Z,4.90
2019-05-23T02:29:03.446Z,7.40
2019-05-23T02:30:03.435Z,5.60
2019-05-23T02:31:03.433Z,4.80
2019-05-23T02:32:03.408Z,5.20
2019-05-23T02:33:03.405Z,5.90
2019-05-23T02:34:03.389Z,5.70
2019-05-23T02:35:03.379Z,5.50
2019-05-23T02:36:03.378Z,5.70
2019-05-23T02:37:03.370Z,5.70
2019-05-23T02:38:03.355Z,5.00
2019-05-23T02:39:03.339Z,5.90
2019-05-23T02:40:03.342Z,6.10
2019-05-23T02:41:03.317Z,5.90
2019-05-23T02:42:03.309Z,6.60
2019-05-23T02:43:03.301Z,7.00
2019-05-23T02:44:03.286Z,7.20
2019-05-23T02:45:03.275Z,6.50
2019-05-23T02:46:03.266Z,8.20
2019-05-23T02:47:03.261Z,7.30
2019-05-23T02:48:03.250Z,5.90
2019-05-23T02:49:03.231Z,7.00
2019-05-23T02:50:03.227Z,7.00
2019-05-23T02:51:03.283Z,6.90
2019-05-23T02:52:03.214Z,5.80
2019-05-23T02:53:03.200Z,7.10
2019-05-23T02:54:03.182Z,5.70
2019-05-23T02:55:03.185Z,6.60
2019-05-23T02:56:03.164Z,9.60
2019-05-23T02:57:03.153Z,5.90
2019-05-23T02:58:03.148Z,4.60
2019-05-23T02:59:03.133Z,5.40
2019-05-23T03:00:03.144Z,7.00
2019-05-23T03:01:03.111Z,5.50
2019-05-23T03:02:03.098Z,6.70
2019-05-23T03:03:03.091Z,4.70
2019-05-23T03:04:03.077Z,5.20
2019-05-23T03:05:03.069Z,5.00
2019-05-23T03:06:03.058Z,6.10
2019-05-23T03:07:03.138Z,6.10
2019-05-23T03:08:03.037Z,5.70
2019-05-23T03:09:03.037Z,7.20
2019-05-23T03:10:03.019Z,4.90
2019-05-23T03:11:03.013Z,7.70
2019-05-23T03:12:02.996Z,7.10
2019-05-23T03:13:02.996Z,6.40
2019-05-23T03:14:02.973Z,7.40
2019-05-23T03:15:02.963Z,7.80
2019-05-23T03:16:02.954Z,6.50
2019-05-23T03:17:02.944Z,5.20
2019-05-23T03:18:02.937Z,6.30
2019-05-23T03:19:02.966Z,5.30
2019-05-23T03:20:02.968Z,5.20
2019-05-23T03:21:02.903Z,6.90
2019-05-23T03:22:02.887Z,5.10
2019-05-23T03:23:02.881Z,8.50
2019-05-23T03:24:02.873Z,6.60
2019-05-23T03:25:02.864Z,5.70
2019-05-23T03:26:02.851Z,6.10
2019-05-23T03:27:02.840Z,5.00
2019-05-23T03:28:02.831Z,4.60
2019-05-23T03:29:02.817Z,5.50
2019-05-23T03:30:02.826Z,7.00
2019-05-23T03:31:27.114Z,4.80
2019-05-23T03:32:02.786Z,5.10
2019-05-23T03:33:02.774Z,4.50
2019-05-23T03:34:02.781Z,5.90
2019-05-23T03:35:02.808Z,5.30
2019-05-23T03:36:02.744Z,5.50
2019-05-23T03:37:02.737Z,6.90
2019-05-23T03:38:02.727Z,5.90
2019-05-23T03:39:02.718Z,7.10
2019-05-23T03:40:02.701Z,6.00
2019-05-23T03:41:02.696Z,5.00
2019-05-23T03:42:02.681Z,5.10
2019-05-23T03:43:02.722Z,4.80
2019-05-23T03:44:02.673Z,5.70
2019-05-23T03:45:02.653Z,8.70
2019-05-23T03:46:02.638Z,4.50
2019-05-23T03:47:02.639Z,6.10
2019-05-23T03:48:02.618Z,5.80
2019-05-23T03:49:02.608Z,5.70
2019-05-23T03:50:02.596Z,6.40
2019-05-23T03:51:02.589Z,5.40
2019-05-23T03:52:02.574Z,6.70
2019-05-23T03:53:02.574Z,5.40
2019-05-23T03:54:02.580Z,5.80
2019-05-23T03:55:02.548Z,7.60
2019-05-23T03:56:02.536Z,5.30
2019-05-23T03:57:02.528Z,6.30
2019-05-23T03:58:02.519Z,10.70
2019-05-23T03:59:02.505Z,8.10
2019-05-23T04:00:02.492Z,6.70
2019-05-23T04:01:02.493Z,5.50
2019-05-23T04:02:02.468Z,6.50
2019-05-23T04:03:02.471Z,6.00
2019-05-23T04:04:02.525Z,5.60
2019-05-23T04:05:02.447Z,7.60
2019-05-23T04:06:02.429Z,5.10
2019-05-23T04:07:02.433Z,5.90
2019-05-23T04:08:02.415Z,6.60
2019-05-23T04:09:02.400Z,7.60
2019-05-23T04:10:02.385Z,5.30
2019-05-23T04:11:02.377Z,7.50
2019-05-23T04:12:02.383Z,5.90
2019-05-23T04:13:02.365Z,5.30
2019-05-23T04:14:02.345Z,6.60
2019-05-23T04:15:02.334Z,5.20
2019-05-23T04:16:02.325Z,5.30
2019-05-23T04:17:02.314Z,6.10
2019-05-23T04:18:02.314Z,5.40
2019-05-23T04:19:02.291Z,7.70
2019-05-23T04:20:02.280Z,6.10
2019-05-23T04:21:02.271Z,8.70
2019-05-23T04:22:02.260Z,7.40
2019-05-23T04:23:02.253Z,8.20
2019-05-23T04:24:02.241Z,7.50
2019-05-23T04:25:02.726Z,6.30
2019-05-23T04:26:02.223Z,7.70
2019-05-23T04:27:02.209Z,6.60
2019-05-23T04:28:02.223Z,6.70
2019-05-23T04:29:02.187Z,6.80
2019-05-23T04:30:02.215Z,9.00
2019-05-23T04:31:02.168Z,8.90
2019-05-23T04:32:07.643Z,9.40
2019-05-23T04:33:02.146Z,8.30
2019-05-23T04:34:02.137Z,6.60
2019-05-23T04:35:02.128Z,7.30
2019-05-23T04:36:02.113Z,6.50
2019-05-23T04:37:02.105Z,7.30
2019-05-23T04:38:02.096Z,8.60
2019-05-23T04:39:02.085Z,7.50
2019-05-23T04:40:02.078Z,7.80
2019-05-23T04:41:02.063Z,7.10
2019-05-23T04:42:02.071Z,7.50
2019-05-23T04:43:02.044Z,7.40
2019-05-23T04:44:02.037Z,7.50
2019-05-23T04:45:02.029Z,9.30
2019-05-23T04:46:02.040Z,7.40
2019-05-23T04:47:02.012Z,7.00
2019-05-23T04:48:02.000Z,7.50
2019-05-23T04:49:01.996Z,5.90
2019-05-23T04:50:02.009Z,6.50
2019-05-23T04:51:01.979Z,8.80
2019-05-23T04:52:01.972Z,7.00
2019-05-23T04:53:01.967Z,6.40
2019-05-23T04:54:01.963Z,8.10
2019-05-23T04:55:01.960Z,6.90
2019-05-23T04:56:01.949Z,7.00
2019-05-23T04:57:01.960Z,6.50
2019-05-23T04:58:04.710Z,9.90
2019-05-23T04:59:01.934Z,6.30
2019-05-23T05:00:02.192Z,7.90
2019-05-23T05:01:01.925Z,8.50
2019-05-23T05:02:01.930Z,7.30
2019-05-23T05:03:01.922Z,7.60
2019-05-23T05:04:01.928Z,8.10
2019-05-23T05:05:01.911Z,8.80
2019-05-23T05:06:01.904Z,6.80
2019-05-23T05:07:01.902Z,7.10
2019-05-23T05:08:01.918Z,7.20
2019-05-23T05:09:01.896Z,7.20
2019-05-23T05:10:01.892Z,7.10
2019-05-23T05:11:01.887Z,7.90
2019-05-23T05:12:01.882Z,9.90
2019-05-23T05:13:01.882Z,7.80
2019-05-23T05:14:01.872Z,9.50
2019-05-23T05:15:01.871Z,22.10
2019-05-23T05:16:01.865Z,17.70
2019-05-23T05:17:01.860Z,11.20
2019-05-23T05:18:01.857Z,9.40
2019-05-23T05:19:01.852Z,11.90
2019-05-23T05:20:02.288Z,15.10
2019-05-23T05:21:01.841Z,14.40
2019-05-23T05:22:01.837Z,13.00
2019-05-23T05:23:01.845Z,9.20
2019-05-23T05:24:01.824Z,10.50
2019-05-23T05:25:02.006Z,7.80
2019-05-23T05:26:01.820Z,7.30
2019-05-23T05:27:01.824Z,8.00
2019-05-23T05:28:01.803Z,7.60
2019-05-23T05:29:01.796Z,9.10
2019-05-23T05:30:02.238Z,7.40
2019-05-23T05:31:01.859Z,7.90
2019-05-23T05:32:03.841Z,7.90
2019-05-23T05:33:01.773Z,8.00
2019-05-23T05:34:01.770Z,7.90
2019-05-23T05:35:01.782Z,8.10
2019-05-23T05:36:01.756Z,8.00
2019-05-23T05:37:01.749Z,9.70
2019-05-23T05:38:01.747Z,7.30
2019-05-23T05:39:01.737Z,8.40
2019-05-23T05:40:01.729Z,9.50
2019-05-23T05:41:01.726Z,11.00
2019-05-23T05:42:01.720Z,13.70
2019-05-23T05:43:01.891Z,12.60
2019-05-23T05:44:01.712Z,8.20
2019-05-23T05:45:01.710Z,10.40
2019-05-23T05:46:01.693Z,8.20
2019-05-23T05:47:01.693Z,9.50
2019-05-23T05:48:01.682Z,9.10
2019-05-23T05:49:01.674Z,7.10
2019-05-23T05:50:01.668Z,9.20
2019-05-23T05:51:01.664Z,10.80
2019-05-23T05:52:01.664Z,10.70
2019-05-23T05:53:01.650Z,11.40
2019-05-23T05:54:01.645Z,8.50
2019-05-23T05:55:01.651Z,7.10
2019-05-23T05:56:01.632Z,7.60
2019-05-23T05:57:01.624Z,9.00
2019-05-23T05:58:01.620Z,8.40
2019-05-23T05:59:01.633Z,7.10
2019-05-23T06:00:01.609Z,8.20
2019-05-23T06:01:01.606Z,8.60
2019-05-23T06:02:01.627Z,9.70
2019-05-23T06:03:05.347Z,9.20
2019-05-23T06:04:01.601Z,8.70
2019-05-23T06:05:01.593Z,9.40
2019-05-23T06:06:01.569Z,8.10
2019-05-23T06:07:01.668Z,8.70
2019-05-23T06:08:01.553Z,8.80
2019-05-23T06:09:01.544Z,7.80
2019-05-23T06:10:01.540Z,9.10
2019-05-23T06:11:01.535Z,11.80
2019-05-23T06:12:01.531Z,11.90
2019-05-23T06:13:01.524Z,10.30
2019-05-23T06:14:01.517Z,9.20
2019-05-23T06:15:01.626Z,9.10
2019-05-23T06:16:01.504Z,9.30
2019-05-23T06:17:01.499Z,9.40
2019-05-23T06:18:01.490Z,11.50
2019-05-23T06:19:01.491Z,8.60
2019-05-23T06:20:01.475Z,8.70
2019-05-23T06:21:01.474Z,15.00
2019-05-23T06:22:01.467Z,15.40
2019-05-23T06:23:01.461Z,8.50
2019-05-23T06:24:01.452Z,9.60
2019-05-23T06:25:01.540Z,9.00
2019-05-23T06:26:01.497Z,9.40
2019-05-23T06:27:01.435Z,8.70
2019-05-23T06:28:01.431Z,10.60
2019-05-23T06:29:01.425Z,10.80
2019-05-23T06:30:01.417Z,12.80
2019-05-23T06:31:01.411Z,11.00
2019-05-23T06:32:01.407Z,12.40
2019-05-23T06:33:01.402Z,13.60
2019-05-23T06:34:01.397Z,16.60
2019-05-23T06:35:01.432Z,12.90
2019-05-23T06:36:01.387Z,13.40
2019-05-23T06:37:01.383Z,17.30
2019-05-23T06:38:01.386Z,12.70
2019-05-23T06:39:01.366Z,10.20
2019-05-23T06:40:01.363Z,12.30
2019-05-23T06:41:01.355Z,12.00
2019-05-23T06:42:01.347Z,17.20
2019-05-23T06:43:01.339Z,13.50
2019-05-23T06:44:01.383Z,14.70
2019-05-23T06:45:01.329Z,14.40
2019-05-23T06:46:01.320Z,13.90
2019-05-23T06:47:01.316Z,14.30
2019-05-23T06:48:01.312Z,15.80
2019-05-23T06:49:01.303Z,13.00
2019-05-23T06:50:01.296Z,14.10
2019-05-23T06:51:01.285Z,14.80
2019-05-23T06:52:01.282Z,15.60
2019-05-23T06:53:01.649Z,15.60
2019-05-23T06:54:01.266Z,18.10
2019-05-23T06:55:01.263Z,16.00
2019-05-23T06:56:01.257Z,14.40
2019-05-23T06:57:01.250Z,15.90
2019-05-23T06:58:01.241Z,16.80
2019-05-23T06:59:01.236Z,15.50
2019-05-23T07:00:01.276Z,15.80
2019-05-23T07:01:01.226Z,15.20
2019-05-23T07:02:01.217Z,17.00
2019-05-23T07:03:01.208Z,15.10
2019-05-23T07:04:01.203Z,15.20
2019-05-23T07:05:01.194Z,15.30
2019-05-23T07:06:01.190Z,16.10
2019-05-23T07:07:01.259Z,15.90
2019-05-23T07:08:01.175Z,18.90
2019-05-23T07:09:01.168Z,17.20
2019-05-23T07:10:01.303Z,18.00
2019-05-23T07:11:01.186Z,16.40
2019-05-23T07:12:01.149Z,15.60
2019-05-23T07:13:01.141Z,16.70
2019-05-23T07:14:01.132Z,15.50
2019-05-23T07:15:01.134Z,16.60
2019-05-23T07:16:01.134Z,15.10
2019-05-23T07:17:01.117Z,15.80
2019-05-23T07:18:01.113Z,15.10
2019-05-23T07:19:01.102Z,15.10
2019-05-23T07:20:01.095Z,15.90
2019-05-23T07:21:01.087Z,13.80
2019-05-23T07:22:01.092Z,14.90
2019-05-23T07:23:01.074Z,15.50
2019-05-23T07:24:01.072Z,17.20
2019-05-23T07:25:01.062Z,16.20
2019-05-23T07:26:01.063Z,15.70
2019-05-23T07:27:01.049Z,15.70
2019-05-23T07:28:01.043Z,15.40
2019-05-23T07:29:01.038Z,16.50
2019-05-23T07:30:01.031Z,15.30
2019-05-23T07:31:01.022Z,14.70
2019-05-23T07:32:01.016Z,13.00
2019-05-23T07:33:01.010Z,14.30
2019-05-23T07:34:02.623Z,15.50
2019-05-23T07:35:00.998Z,14.00
2019-05-23T07:36:01.055Z,13.20
2019-05-23T07:37:00.989Z,14.10
2019-05-23T07:38:00.977Z,14.70
2019-05-23T07:39:00.972Z,13.60
2019-05-23T07:40:00.963Z,15.00
2019-05-23T07:41:00.963Z,12.00
2019-05-23T07:42:00.952Z,14.50
2019-05-23T07:43:00.947Z,16.20
2019-05-23T07:44:00.939Z,13.10
2019-05-23T07:45:00.933Z,14.60
2019-05-23T07:46:00.923Z,13.20
2019-05-23T07:47:00.916Z,12.00
2019-05-23T07:48:00.912Z,11.00
2019-05-23T07:49:00.910Z,10.20
2019-05-23T07:50:00.900Z,10.40
2019-05-23T07:51:00.898Z,12.10
2019-05-23T07:52:00.895Z,10.30
2019-05-23T07:53:00.887Z,13.10
2019-05-23T07:54:00.885Z,12.30
2019-05-23T07:55:00.877Z,11.40
2019-05-23T07:56:00.880Z,12.30
2019-05-23T07:57:00.853Z,11.40
2019-05-23T07:58:00.852Z,11.40
2019-05-23T07:59:00.845Z,11.70
2019-05-23T08:00:00.839Z,12.20
2019-05-23T08:01:00.833Z,11.40
2019-05-23T08:02:00.825Z,12.60
2019-05-23T08:03:00.821Z,11.80
2019-05-23T08:04:17.989Z,13.60
2019-05-23T08:05:00.805Z,14.40
2019-05-23T08:06:00.801Z,11.00
2019-05-23T08:07:00.795Z,12.20
2019-05-23T08:08:00.808Z,9.60
2019-05-23T08:09:00.786Z,9.80
2019-05-23T08:10:00.782Z,10.20
2019-05-23T08:11:00.772Z,12.80
2019-05-23T08:12:00.767Z,9.70
2019-05-23T08:13:00.764Z,9.20
2019-05-23T08:14:00.751Z,10.20
2019-05-23T08:15:00.746Z,10.80
2019-05-23T08:16:00.742Z,12.20
2019-05-23T08:17:00.745Z,12.50
2019-05-23T08:18:00.730Z,10.70
2019-05-23T08:19:00.724Z,10.00
2019-05-23T08:20:00.717Z,10.40
2019-05-23T08:21:00.712Z,10.60
2019-05-23T08:22:00.707Z,9.50
2019-05-23T08:24:00.700Z,10.50
2019-05-23T08:25:00.694Z,9.60
2019-05-23T08:26:00.691Z,11.00
2019-05-23T08:27:00.721Z,10.20
2019-05-23T08:28:00.669Z,10.00
2019-05-23T08:29:24.104Z,10.70
2019-05-23T08:30:02.467Z,10.10
2019-05-23T08:31:00.655Z,10.70
2019-05-23T08:32:00.645Z,9.50
2019-05-23T08:33:00.639Z,9.70
2019-05-23T08:34:00.635Z,9.80
2019-05-23T08:35:00.646Z,9.90
2019-05-23T08:36:00.631Z,11.30
2019-05-23T08:37:00.620Z,10.00
2019-05-23T08:38:00.614Z,10.10
2019-05-23T08:39:00.609Z,10.50
2019-05-23T08:40:00.611Z,10.50
2019-05-23T08:41:00.598Z,10.60
2019-05-23T08:42:00.595Z,11.50
2019-05-23T08:43:00.586Z,9.20
2019-05-23T08:44:00.582Z,11.00
2019-05-23T08:45:00.584Z,9.90
2019-05-23T08:46:00.598Z,9.80
2019-05-23T08:47:00.565Z,9.80
2019-05-23T08:48:00.563Z,10.70
2019-05-23T08:49:00.554Z,11.80
2019-05-23T08:50:00.554Z,13.50
2019-05-23T08:51:00.543Z,9.70
2019-05-23T08:52:00.536Z,9.30
2019-05-23T08:53:00.533Z,9.60
2019-05-23T08:54:00.525Z,9.80
2019-05-23T08:55:00.521Z,8.40
2019-05-23T08:56:00.538Z,11.20
2019-05-23T08:57:00.515Z,9.40
2019-05-23T08:58:00.507Z,8.70
2019-05-23T08:59:00.499Z,10.00
2019-05-23T09:00:00.495Z,8.80
2019-05-23T09:01:00.497Z,9.60
2019-05-23T09:02:00.484Z,10.10
2019-05-23T09:03:00.487Z,11.00
2019-05-23T09:04:00.474Z,9.60
2019-05-23T09:05:05.554Z,8.50
2019-05-23T09:06:00.464Z,8.90
2019-05-23T09:07:00.457Z,11.00
2019-05-23T09:08:00.454Z,10.30
2019-05-23T09:09:00.446Z,8.80
2019-05-23T09:10:00.441Z,10.40
2019-05-23T09:11:00.436Z,8.20
2019-05-23T09:12:00.429Z,9.40
2019-05-23T09:13:00.427Z,8.70
2019-05-23T09:14:00.428Z,8.60
2019-05-23T09:15:00.427Z,9.00
2019-05-23T09:16:00.426Z,10.50
2019-05-23T09:17:00.402Z,9.10
2019-05-23T09:18:00.400Z,9.10
2019-05-23T09:19:00.394Z,9.10
2019-05-23T09:20:00.388Z,8.00
2019-05-23T09:21:00.383Z,8.20
2019-05-23T09:22:00.376Z,11.20
2019-05-23T09:23:00.371Z,10.80
2019-05-23T09:24:00.365Z,8.40
2019-05-23T09:25:00.364Z,9.30
2019-05-23T09:26:00.423Z,8.40
2019-05-23T09:27:00.350Z,9.00
2019-05-23T09:28:00.346Z,9.30
2019-05-23T09:29:00.356Z,7.90
2019-05-23T09:30:00.347Z,8.60
2019-05-23T09:31:00.331Z,9.20
2019-05-23T09:32:00.324Z,9.30
2019-05-23T09:33:00.323Z,8.10
2019-05-23T09:34:00.320Z,9.10
2019-05-23T09:35:00.370Z,8.80
2019-05-23T09:36:00.305Z,10.30
2019-05-23T09:37:00.733Z,7.50
2019-05-23T09:38:00.298Z,7.60
2019-05-23T09:39:00.341Z,7.70
2019-05-23T09:40:00.287Z,8.50
2019-05-23T09:41:00.281Z,8.30
2019-05-23T09:42:00.278Z,8.30
2019-05-23T09:43:00.271Z,8.40
2019-05-23T09:44:00.265Z,8.80
2019-05-23T09:45:00.277Z,8.90
2019-05-23T09:46:00.252Z,8.40
2019-05-23T09:47:00.250Z,9.20
2019-05-23T09:48:00.247Z,10.20
2019-05-23T09:49:00.243Z,8.90
2019-05-23T09:50:00.235Z,8.10
2019-05-23T09:51:00.239Z,8.30
2019-05-23T09:52:01.404Z,10.70
2019-05-23T09:53:00.220Z,7.90
2019-05-23T09:54:00.215Z,8.90
2019-05-23T09:55:00.213Z,7.90
2019-05-23T09:56:00.204Z,7.60
2019-05-23T09:57:00.218Z,8.80
2019-05-23T09:58:00.196Z,7.70
2019-05-23T09:59:00.193Z,7.80
2019-05-23T10:00:00.189Z,8.60
2019-05-23T10:01:00.185Z,8.20
2019-05-23T10:02:00.181Z,8.40
2019-05-23T10:03:00.171Z,10.40
2019-05-23T10:04:00.173Z,10.50
2019-05-23T10:05:00.167Z,8.40
2019-05-23T10:06:00.161Z,8.40
2019-05-23T10:07:00.157Z,11.00
2019-05-23T10:08:00.156Z,8.70
2019-05-23T10:09:00.222Z,8.80
2019-05-23T10:10:00.154Z,10.10
2019-05-23T10:11:00.142Z,8.80
2019-05-23T10:12:00.132Z,10.10
2019-05-23T10:13:00.178Z,9.50
2019-05-23T10:14:00.122Z,8.20
2019-05-23T10:15:00.126Z,8.30
2019-05-23T10:16:00.116Z,8.40
2019-05-23T10:17:00.109Z,8.40
2019-05-23T10:18:01.126Z,8.60
2019-05-23T10:19:00.102Z,9.50
2019-05-23T10:20:00.094Z,8.60
2019-05-23T10:21:00.090Z,8.90
2019-05-23T10:22:00.088Z,9.40
2019-05-23T10:23:00.087Z,9.80
2019-05-23T10:24:00.137Z,13.60
2019-05-23T10:25:00.089Z,9.00
2019-05-23T10:26:00.089Z,11.90
2019-05-23T10:27:00.065Z,10.20
2019-05-23T10:28:00.077Z,9.60
2019-05-23T10:29:00.056Z,11.00
2019-05-23T10:30:00.052Z,10.10
2019-05-23T10:31:00.047Z,8.90
2019-05-23T10:32:00.044Z,8.20
2019-05-23T10:33:00.038Z,8.30
2019-05-23T10:34:00.090Z,10.40
2019-05-23T10:35:00.045Z,9.30
2019-05-23T10:36:01.294Z,10.10
2019-05-23T10:37:00.020Z,8.30
2019-05-23T10:38:00.024Z,9.10
2019-05-23T10:39:00.014Z,9.90
2019-05-23T10:40:00.026Z,10.30
2019-05-23T10:41:00.005Z,7.40
2019-05-23T10:42:00.021Z,8.00
2019-05-23T10:42:59.996Z,7.80
2019-05-23T10:43:59.997Z,8.00
2019-05-23T10:44:59.988Z,8.00
2019-05-23T10:45:59.984Z,9.70
2019-05-23T10:46:59.982Z,9.80
2019-05-23T10:47:59.978Z,8.40
2019-05-23T10:48:59.971Z,9.00
2019-05-23T10:49:59.988Z,8.10
2019-05-23T10:50:59.965Z,7.80
2019-05-23T10:52:00.008Z,8.10
2019-05-23T10:52:59.956Z,9.60
2019-05-23T10:53:59.954Z,8.10
2019-05-23T10:54:59.973Z,8.50
2019-05-23T10:55:59.945Z,7.50
2019-05-23T10:56:59.942Z,8.60
2019-05-23T10:57:59.941Z,8.50
2019-05-23T10:58:59.934Z,8.40
2019-05-23T10:59:59.929Z,8.60
2019-05-23T11:00:59.935Z,10.90
2019-05-23T11:01:59.924Z,12.00
2019-05-23T11:02:59.916Z,11.70
2019-05-23T11:03:59.918Z,10.00
2019-05-23T11:05:11.512Z,10.50
2019-05-23T11:06:13.309Z,8.80
2019-05-23T11:06:59.909Z,8.60
2019-05-23T11:07:59.896Z,8.40
2019-05-23T11:08:59.898Z,9.20
2019-05-23T11:09:59.889Z,7.90
2019-05-23T11:10:59.888Z,8.20
2019-05-23T11:11:59.886Z,9.90
2019-05-23T11:12:59.882Z,8.70
2019-05-23T11:13:59.877Z,8.20
2019-05-23T11:14:59.874Z,12.70
2019-05-23T11:15:59.867Z,8.50
2019-05-23T11:16:59.866Z,7.50
2019-05-23T11:17:59.863Z,8.10
2019-05-23T11:18:59.854Z,7.00
2019-05-23T11:19:59.854Z,6.40
2019-05-23T11:20:59.849Z,6.20
2019-05-23T11:21:59.849Z,6.10
2019-05-23T11:23:03.469Z,6.50
2019-05-23T11:23:59.835Z,6.00
2019-05-23T11:24:59.831Z,6.20
2019-05-23T11:26:01.503Z,8.30
2019-05-23T11:26:59.830Z,9.40
2019-05-23T11:27:59.825Z,8.20
2019-05-23T11:28:59.818Z,7.90
2019-05-23T11:29:59.816Z,8.40
2019-05-23T11:30:59.817Z,8.80
2019-05-23T11:31:59.806Z,10.20
2019-05-23T11:32:59.805Z,9.00
2019-05-23T11:33:59.801Z,8.10
2019-05-23T11:34:59.801Z,8.90
2019-05-23T11:35:59.794Z,10.60
2019-05-23T11:36:59.788Z,7.50
2019-05-23T11:37:59.783Z,6.90
2019-05-23T11:38:59.784Z,8.50
2019-05-23T11:39:59.776Z,6.30
2019-05-23T11:40:59.775Z,7.00
2019-05-23T11:41:59.774Z,6.90
2019-05-23T11:42:59.767Z,6.90
2019-05-23T11:43:59.765Z,7.20
2019-05-23T11:44:59.760Z,7.90
2019-05-23T11:45:59.758Z,6.80
2019-05-23T11:46:59.752Z,6.60
2019-05-23T11:47:59.755Z,6.80
2019-05-23T11:48:59.747Z,7.00
2019-05-23T11:49:59.741Z,7.00
2019-05-23T11:50:59.742Z,8.90
2019-05-23T11:51:59.740Z,6.40
2019-05-23T11:52:59.746Z,8.80
2019-05-23T11:54:07.639Z,7.10
2019-05-23T11:54:59.724Z,7.30
2019-05-23T11:55:59.757Z,6.20
2019-05-23T11:56:59.725Z,6.00
2019-05-23T11:57:59.722Z,6.70
2019-05-23T11:59:01.505Z,7.00
2019-05-23T11:59:59.707Z,6.20
2019-05-23T12:00:59.729Z,6.00
2019-05-23T12:01:59.702Z,6.40
2019-05-23T12:02:59.698Z,7.00
2019-05-23T12:03:59.691Z,7.40
2019-05-23T12:04:59.716Z,6.30
2019-05-23T12:05:59.687Z,6.50
2019-05-23T12:06:59.684Z,6.60
2019-05-23T12:07:59.685Z,7.40
2019-05-23T12:08:59.675Z,5.80
2019-05-23T12:09:59.676Z,5.90
2019-05-23T12:10:59.674Z,5.20
2019-05-23T12:11:59.665Z,6.90
2019-05-23T12:12:59.663Z,5.10
2019-05-23T12:13:59.657Z,5.70
2019-05-23T12:14:59.657Z,6.40
2019-05-23T12:15:59.651Z,5.40
2019-05-23T12:16:59.648Z,6.00
2019-05-23T12:17:59.645Z,6.00
2019-05-23T12:18:59.641Z,4.90
2019-05-23T12:19:59.648Z,4.60
2019-05-23T12:20:59.967Z,6.90
2019-05-23T12:21:59.644Z,7.10
2019-05-23T12:22:59.640Z,4.70
2019-05-23T12:23:59.626Z,5.40
2019-05-23T12:25:18.240Z,6.10
2019-05-23T12:25:59.616Z,6.30
2019-05-23T12:26:59.618Z,4.80
2019-05-23T12:27:59.611Z,6.40
2019-05-23T12:28:59.607Z,5.70
2019-05-23T12:29:59.608Z,5.20
2019-05-23T12:30:59.601Z,4.70
2019-05-23T12:31:59.598Z,5.10
2019-05-23T12:32:59.596Z,6.80
2019-05-23T12:33:59.595Z,4.60
2019-05-23T12:35:10.433Z,4.80
2019-05-23T12:35:59.583Z,4.70
2019-05-23T12:37:17.126Z,7.00
2019-05-23T12:38:02.476Z,6.20
2019-05-23T12:38:59.576Z,4.30
2019-05-23T12:39:59.571Z,5.80
2019-05-23T12:40:59.569Z,6.00
2019-05-23T12:41:59.567Z,4.40
2019-05-23T12:42:59.561Z,4.90
2019-05-23T12:43:59.558Z,5.00
2019-05-23T12:44:59.560Z,7.10
2019-05-23T12:45:59.556Z,5.20
2019-05-23T12:46:59.557Z,5.90
2019-05-23T12:47:59.622Z,8.00
2019-05-23T12:48:59.541Z,5.70
2019-05-23T12:49:59.540Z,4.10
2019-05-23T12:50:59.542Z,4.20
2019-05-23T12:51:59.537Z,3.80
2019-05-23T12:52:59.526Z,5.30
2019-05-23T12:53:59.524Z,3.80
2019-05-23T12:54:59.522Z,3.80
2019-05-23T12:55:59.524Z,4.00
2019-05-23T12:56:59.513Z,4.10
2019-05-23T12:57:59.518Z,4.40
2019-05-23T12:58:59.511Z,5.90
2019-05-23T12:59:59.505Z,4.80
2019-05-23T13:00:59.503Z,5.60
2019-05-23T13:01:59.500Z,4.60
2019-05-23T13:02:59.504Z,3.70
2019-05-23T13:03:59.494Z,3.70
2019-05-23T13:04:59.490Z,4.10
2019-05-23T13:05:59.486Z,4.10
2019-05-23T13:06:59.484Z,4.40
2019-05-23T13:07:59.477Z,5.80
2019-05-23T13:08:59.482Z,5.90
2019-05-23T13:09:59.473Z,5.00
2019-05-23T13:10:59.470Z,4.60
2019-05-23T13:11:59.464Z,3.80
2019-05-23T13:12:59.461Z,5.30